sensor_id;sensor_type;location;lat;lon;timestamp;P1;durP1;ratioP1;P2;durP2;ratioP2
21657;SDS011;10990;48.174;9.782;2022-07-18T00:00:28;2.80;;;1.67;;
21657;SDS011;10990;48.174;9.782;2022-07-18T00:02:55;3.42;;;1.65;;
21657;SDS011;10990;48.174;9.782;2022-07-18T00:05:23;2.53;;;1.90;;
21657;SDS011;10990;48.174;9.782;2022-07-18T00:07:51;2.20;;;2.00;;
21657;SDS011;10990;48.174;9.782;2022-07-18T00:10:19;3.38;;;1.90;;
21657;SDS011;10990;48.174;9.782;2022-07-18T00:12:45;2.70;;;1.70;;
21657;SDS011;10990;48.174;9.782;2022-07-18T00:15:13;2.20;;;2.00;;
21657;SDS011;10990;48.174;9.782;2022-07-18T00:17:41;1.80;;;1.70;;
21657;SDS011;10990;48.174;9.782;2022-07-18T00:20:10;2.35;;;2.00;;
21657;SDS011;10990;48.174;9.782;2022-07-18T00:22:37;1.90;;;1.70;;
21657;SDS011;10990;48.174;9.782;2022-07-18T00:25:05;2.15;;;1.95;;
21657;SDS011;10990;48.174;9.782;2022-07-18T00:27:34;2.70;;;1.85;;
21657;SDS011;10990;48.174;9.782;2022-07-18T00:30:01;3.67;;;2.08;;
21657;SDS011;10990;48.174;9.782;2022-07-18T00:32:29;2.25;;;2.05;;
21657;SDS011;10990;48.174;9.782;2022-07-18T00:34:57;1.80;;;1.70;;
21657;SDS011;10990;48.174;9.782;2022-07-18T00:37:24;2.55;;;1.85;;
21657;SDS011;10990;48.174;9.782;2022-07-18T00:39:51;3.05;;;1.90;;
21657;SDS011;10990;48.174;9.782;2022-07-18T00:42:20;3.80;;;2.00;;
21657;SDS011;10990;48.174;9.782;2022-07-18T00:44:52;1.70;;;1.60;;
21657;SDS011;10990;48.174;9.782;2022-07-18T00:47:20;2.22;;;1.90;;
21657;SDS011;10990;48.174;9.782;2022-07-18T00:49:48;2.55;;;1.67;;
21657;SDS011;10990;48.174;9.782;2022-07-18T00:52:17;2.08;;;1.90;;
21657;SDS011;10990;48.174;9.782;2022-07-18T00:54:43;3.47;;;1.88;;
21657;SDS011;10990;48.174;9.782;2022-07-18T00:57:12;3.25;;;1.92;;
21657;SDS011;10990;48.174;9.782;2022-07-18T00:59:39;4.35;;;2.20;;
21657;SDS011;10990;48.174;9.782;2022-07-18T01:02:25;2.85;;;2.08;;
21657;SDS011;10990;48.174;9.782;2022-07-18T01:04:52;3.78;;;1.90;;
21657;SDS011;10990;48.174;9.782;2022-07-18T01:07:21;2.53;;;1.90;;
21657;SDS011;10990;48.174;9.782;2022-07-18T01:09:49;2.13;;;1.90;;
21657;SDS011;10990;48.174;9.782;2022-07-18T01:12:16;3.22;;;1.80;;
21657;SDS011;10990;48.174;9.782;2022-07-18T01:14:43;2.20;;;1.90;;
21657;SDS011;10990;48.174;9.782;2022-07-18T01:17:13;5.75;;;2.40;;
21657;SDS011;10990;48.174;9.782;2022-07-18T01:19:41;2.38;;;1.95;;
21657;SDS011;10990;48.174;9.782;2022-07-18T01:22:10;2.50;;;2.20;;
21657;SDS011;10990;48.174;9.782;2022-07-18T01:24:37;2.40;;;2.20;;
21657;SDS011;10990;48.174;9.782;2022-07-18T01:27:07;2.78;;;1.90;;
21657;SDS011;10990;48.174;9.782;2022-07-18T01:29:35;2.30;;;2.00;;
21657;SDS011;10990;48.174;9.782;2022-07-18T01:32:06;2.95;;;1.90;;
21657;SDS011;10990;48.174;9.782;2022-07-18T01:34:34;3.88;;;2.10;;
21657;SDS011;10990;48.174;9.782;2022-07-18T01:37:01;3.83;;;2.20;;
21657;SDS011;10990;48.174;9.782;2022-07-18T01:39:30;4.45;;;2.00;;
21657;SDS011;10990;48.174;9.782;2022-07-18T01:41:57;2.53;;;2.20;;
21657;SDS011;10990;48.174;9.782;2022-07-18T01:44:25;2.47;;;2.10;;
21657;SDS011;10990;48.174;9.782;2022-07-18T01:46:54;4.43;;;2.20;;
21657;SDS011;10990;48.174;9.782;2022-07-18T01:49:22;2.25;;;2.00;;
21657;SDS011;10990;48.174;9.782;2022-07-18T01:51:51;2.95;;;2.22;;
21657;SDS011;10990;48.174;9.782;2022-07-18T01:54:19;3.00;;;2.30;;
21657;SDS011;10990;48.174;9.782;2022-07-18T01:56:49;4.10;;;2.58;;
21657;SDS011;10990;48.174;9.782;2022-07-18T01:59:18;2.90;;;2.13;;
21657;SDS011;10990;48.174;9.782;2022-07-18T02:01:45;2.42;;;2.10;;
21657;SDS011;10990;48.174;9.782;2022-07-18T02:04:13;2.50;;;2.15;;
21657;SDS011;10990;48.174;9.782;2022-07-18T02:06:40;3.17;;;2.10;;
21657;SDS011;10990;48.174;9.782;2022-07-18T02:09:09;3.75;;;2.20;;
21657;SDS011;10990;48.174;9.782;2022-07-18T02:11:36;3.13;;;2.00;;
21657;SDS011;10990;48.174;9.782;2022-07-18T02:14:05;4.63;;;2.35;;
21657;SDS011;10990;48.174;9.782;2022-07-18T02:16:33;2.20;;;2.00;;
21657;SDS011;10990;48.174;9.782;2022-07-18T02:18:59;2.30;;;2.10;;
21657;SDS011;10990;48.174;9.782;2022-07-18T02:21:27;3.75;;;2.20;;
21657;SDS011;10990;48.174;9.782;2022-07-18T02:23:54;3.08;;;1.95;;
21657;SDS011;10990;48.174;9.782;2022-07-18T02:26:21;3.72;;;2.42;;
21657;SDS011;10990;48.174;9.782;2022-07-18T02:28:48;2.38;;;2.17;;
21657;SDS011;10990;48.174;9.782;2022-07-18T02:31:17;3.65;;;2.10;;
21657;SDS011;10990;48.174;9.782;2022-07-18T02:33:43;2.40;;;2.15;;
21657;SDS011;10990;48.174;9.782;2022-07-18T02:36:11;2.65;;;2.00;;
21657;SDS011;10990;48.174;9.782;2022-07-18T02:38:37;3.00;;;2.10;;
21657;SDS011;10990;48.174;9.782;2022-07-18T02:41:05;2.47;;;1.90;;
21657;SDS011;10990;48.174;9.782;2022-07-18T02:43:32;2.30;;;2.10;;
21657;SDS011;10990;48.174;9.782;2022-07-18T02:46:00;3.10;;;2.47;;
21657;SDS011;10990;48.174;9.782;2022-07-18T02:48:28;2.67;;;2.47;;
21657;SDS011;10990;48.174;9.782;2022-07-18T02:50:56;4.07;;;2.15;;
21657;SDS011;10990;48.174;9.782;2022-07-18T02:53:23;3.65;;;2.40;;
21657;SDS011;10990;48.174;9.782;2022-07-18T02:55:51;2.72;;;2.33;;
21657;SDS011;10990;48.174;9.782;2022-07-18T02:58:18;3.20;;;2.10;;
21657;SDS011;10990;48.174;9.782;2022-07-18T03:00:45;4.82;;;2.28;;
21657;SDS011;10990;48.174;9.782;2022-07-18T03:03:12;2.97;;;2.30;;
21657;SDS011;10990;48.174;9.782;2022-07-18T03:05:41;3.15;;;2.10;;
21657;SDS011;10990;48.174;9.782;2022-07-18T03:08:08;2.38;;;2.17;;
21657;SDS011;10990;48.174;9.782;2022-07-18T03:10:36;2.45;;;2.20;;
21657;SDS011;10990;48.174;9.782;2022-07-18T03:13:03;2.35;;;2.15;;
21657;SDS011;10990;48.174;9.782;2022-07-18T03:15:30;2.42;;;2.10;;
21657;SDS011;10990;48.174;9.782;2022-07-18T03:17:58;2.55;;;2.08;;
21657;SDS011;10990;48.174;9.782;2022-07-18T03:20:26;2.75;;;2.10;;
21657;SDS011;10990;48.174;9.782;2022-07-18T03:22:54;3.15;;;2.20;;
21657;SDS011;10990;48.174;9.782;2022-07-18T03:25:22;2.33;;;2.13;;
21657;SDS011;10990;48.174;9.782;2022-07-18T03:27:51;4.65;;;2.42;;
21657;SDS011;10990;48.174;9.782;2022-07-18T03:30:19;2.95;;;2.20;;
21657;SDS011;10990;48.174;9.782;2022-07-18T03:32:47;2.25;;;1.90;;
21657;SDS011;10990;48.174;9.782;2022-07-18T03:35:14;2.40;;;2.20;;
21657;SDS011;10990;48.174;9.782;2022-07-18T03:37:42;4.28;;;2.30;;
21657;SDS011;10990;48.174;9.782;2022-07-18T03:40:11;3.90;;;2.47;;
21657;SDS011;10990;48.174;9.782;2022-07-18T03:42:38;2.65;;;2.10;;
21657;SDS011;10990;48.174;9.782;2022-07-18T03:45:05;3.70;;;2.13;;
21657;SDS011;10990;48.174;9.782;2022-07-18T03:47:35;3.97;;;2.30;;
21657;SDS011;10990;48.174;9.782;2022-07-18T03:50:02;2.35;;;2.15;;
21657;SDS011;10990;48.174;9.782;2022-07-18T03:52:30;2.63;;;2.42;;
21657;SDS011;10990;48.174;9.782;2022-07-18T03:54:57;2.78;;;2.33;;
21657;SDS011;10990;48.174;9.782;2022-07-18T03:57:28;4.25;;;2.45;;
21657;SDS011;10990;48.174;9.782;2022-07-18T03:59:57;3.80;;;2.75;;
21657;SDS011;10990;48.174;9.782;2022-07-18T04:02:25;2.55;;;2.13;;
21657;SDS011;10990;48.174;9.782;2022-07-18T04:04:52;3.22;;;2.30;;
21657;SDS011;10990;48.174;9.782;2022-07-18T04:07:20;3.55;;;2.33;;
21657;SDS011;10990;48.174;9.782;2022-07-18T04:09:47;3.75;;;2.40;;
21657;SDS011;10990;48.174;9.782;2022-07-18T04:12:15;2.95;;;2.25;;
21657;SDS011;10990;48.174;9.782;2022-07-18T04:14:43;3.80;;;2.38;;
21657;SDS011;10990;48.174;9.782;2022-07-18T04:17:10;4.05;;;2.40;;
21657;SDS011;10990;48.174;9.782;2022-07-18T04:19:37;3.58;;;2.30;;
21657;SDS011;10990;48.174;9.782;2022-07-18T04:22:04;3.13;;;2.50;;
21657;SDS011;10990;48.174;9.782;2022-07-18T04:24:32;4.90;;;2.65;;
21657;SDS011;10990;48.174;9.782;2022-07-18T04:26:59;4.55;;;2.45;;
21657;SDS011;10990;48.174;9.782;2022-07-18T04:29:26;2.50;;;2.30;;
21657;SDS011;10990;48.174;9.782;2022-07-18T04:31:58;2.67;;;2.45;;
21657;SDS011;10990;48.174;9.782;2022-07-18T04:34:25;3.28;;;2.60;;
21657;SDS011;10990;48.174;9.782;2022-07-18T04:36:53;2.72;;;2.20;;
21657;SDS011;10990;48.174;9.782;2022-07-18T04:39:20;3.35;;;2.25;;
21657;SDS011;10990;48.174;9.782;2022-07-18T04:41:47;4.10;;;2.55;;
21657;SDS011;10990;48.174;9.782;2022-07-18T04:44:15;2.63;;;2.30;;
21657;SDS011;10990;48.174;9.782;2022-07-18T04:46:42;2.45;;;2.25;;
21657;SDS011;10990;48.174;9.782;2022-07-18T04:49:11;2.90;;;2.50;;
21657;SDS011;10990;48.174;9.782;2022-07-18T04:51:39;3.67;;;2.30;;
21657;SDS011;10990;48.174;9.782;2022-07-18T04:54:06;3.58;;;2.70;;
21657;SDS011;10990;48.174;9.782;2022-07-18T04:56:33;4.72;;;2.60;;
21657;SDS011;10990;48.174;9.782;2022-07-18T04:59:00;3.42;;;2.70;;
21657;SDS011;10990;48.174;9.782;2022-07-18T05:01:28;3.40;;;2.63;;
21657;SDS011;10990;48.174;9.782;2022-07-18T05:03:55;4.13;;;2.60;;
21657;SDS011;10990;48.174;9.782;2022-07-18T05:06:24;3.17;;;2.40;;
21657;SDS011;10990;48.174;9.782;2022-07-18T05:08:51;4.03;;;2.33;;
21657;SDS011;10990;48.174;9.782;2022-07-18T05:11:19;4.90;;;2.47;;
21657;SDS011;10990;48.174;9.782;2022-07-18T05:13:45;3.95;;;2.50;;
21657;SDS011;10990;48.174;9.782;2022-07-18T05:16:13;3.80;;;2.50;;
21657;SDS011;10990;48.174;9.782;2022-07-18T05:18:40;5.38;;;2.60;;
21657;SDS011;10990;48.174;9.782;2022-07-18T05:21:07;5.35;;;2.50;;
21657;SDS011;10990;48.174;9.782;2022-07-18T05:23:36;4.13;;;2.40;;
21657;SDS011;10990;48.174;9.782;2022-07-18T05:26:04;3.70;;;2.40;;
21657;SDS011;10990;48.174;9.782;2022-07-18T05:28:31;3.67;;;2.25;;
21657;SDS011;10990;48.174;9.782;2022-07-18T05:30:58;3.80;;;2.42;;
21657;SDS011;10990;48.174;9.782;2022-07-18T05:33:25;6.32;;;2.92;;
21657;SDS011;10990;48.174;9.782;2022-07-18T05:35:53;6.85;;;2.63;;
21657;SDS011;10990;48.174;9.782;2022-07-18T05:38:20;5.53;;;2.40;;
21657;SDS011;10990;48.174;9.782;2022-07-18T05:40:48;5.93;;;2.10;;
21657;SDS011;10990;48.174;9.782;2022-07-18T05:43:16;4.93;;;2.20;;
21657;SDS011;10990;48.174;9.782;2022-07-18T05:45:43;2.42;;;2.00;;
21657;SDS011;10990;48.174;9.782;2022-07-18T05:48:10;4.30;;;2.22;;
21657;SDS011;10990;48.174;9.782;2022-07-18T05:50:38;4.15;;;2.60;;
21657;SDS011;10990;48.174;9.782;2022-07-18T05:53:05;4.40;;;2.30;;
21657;SDS011;10990;48.174;9.782;2022-07-18T05:55:33;3.55;;;2.25;;
21657;SDS011;10990;48.174;9.782;2022-07-18T05:58:01;2.10;;;1.90;;
21657;SDS011;10990;48.174;9.782;2022-07-18T06:00:29;2.08;;;1.90;;
21657;SDS011;10990;48.174;9.782;2022-07-18T06:02:56;2.97;;;1.80;;
21657;SDS011;10990;48.174;9.782;2022-07-18T06:05:23;2.08;;;1.77;;
21657;SDS011;10990;48.174;9.782;2022-07-18T06:07:50;3.05;;;1.80;;
21657;SDS011;10990;48.174;9.782;2022-07-18T06:10:18;2.45;;;1.88;;
21657;SDS011;10990;48.174;9.782;2022-07-18T06:12:46;2.75;;;2.28;;
21657;SDS011;10990;48.174;9.782;2022-07-18T06:15:16;2.38;;;2.17;;
21657;SDS011;10990;48.174;9.782;2022-07-18T06:17:43;2.17;;;1.90;;
21657;SDS011;10990;48.174;9.782;2022-07-18T06:20:11;4.38;;;2.38;;
21657;SDS011;10990;48.174;9.782;2022-07-18T06:22:38;3.20;;;2.10;;
21657;SDS011;10990;48.174;9.782;2022-07-18T06:25:06;5.10;;;2.30;;
21657;SDS011;10990;48.174;9.782;2022-07-18T06:27:33;2.88;;;2.30;;
21657;SDS011;10990;48.174;9.782;2022-07-18T06:30:01;5.13;;;2.78;;
21657;SDS011;10990;48.174;9.782;2022-07-18T06:32:30;3.58;;;2.45;;
21657;SDS011;10990;48.174;9.782;2022-07-18T06:34:59;3.47;;;2.42;;
21657;SDS011;10990;48.174;9.782;2022-07-18T06:37:26;3.63;;;2.47;;
21657;SDS011;10990;48.174;9.782;2022-07-18T06:39:53;3.55;;;2.35;;
21657;SDS011;10990;48.174;9.782;2022-07-18T06:42:20;2.63;;;2.42;;
21657;SDS011;10990;48.174;9.782;2022-07-18T06:44:48;2.67;;;2.47;;
21657;SDS011;10990;48.174;9.782;2022-07-18T06:47:15;2.72;;;2.20;;
21657;SDS011;10990;48.174;9.782;2022-07-18T06:49:43;2.63;;;2.40;;
21657;SDS011;10990;48.174;9.782;2022-07-18T06:52:11;6.10;;;2.55;;
21657;SDS011;10990;48.174;9.782;2022-07-18T06:54:41;4.10;;;2.45;;
21657;SDS011;10990;48.174;9.782;2022-07-18T06:57:09;5.13;;;2.80;;
21657;SDS011;10990;48.174;9.782;2022-07-18T06:59:36;4.28;;;2.60;;
21657;SDS011;10990;48.174;9.782;2022-07-18T07:02:04;4.72;;;2.90;;
21657;SDS011;10990;48.174;9.782;2022-07-18T07:04:31;4.28;;;2.25;;
21657;SDS011;10990;48.174;9.782;2022-07-18T07:07:00;3.05;;;2.38;;
21657;SDS011;10990;48.174;9.782;2022-07-18T07:09:27;3.35;;;2.70;;
21657;SDS011;10990;48.174;9.782;2022-07-18T07:11:54;3.33;;;2.95;;
21657;SDS011;10990;48.174;9.782;2022-07-18T07:14:21;3.92;;;2.63;;
21657;SDS011;10990;48.174;9.782;2022-07-18T07:16:48;7.00;;;2.80;;
21657;SDS011;10990;48.174;9.782;2022-07-18T07:19:15;4.43;;;2.40;;
21657;SDS011;10990;48.174;9.782;2022-07-18T07:21:43;3.72;;;2.22;;
21657;SDS011;10990;48.174;9.782;2022-07-18T07:24:12;4.00;;;2.30;;
21657;SDS011;10990;48.174;9.782;2022-07-18T07:26:40;3.42;;;2.53;;
21657;SDS011;10990;48.174;9.782;2022-07-18T07:29:06;2.55;;;2.10;;
21657;SDS011;10990;48.174;9.782;2022-07-18T07:31:34;2.53;;;2.33;;
21657;SDS011;10990;48.174;9.782;2022-07-18T07:34:00;4.05;;;2.60;;
21657;SDS011;10990;48.174;9.782;2022-07-18T07:36:29;2.50;;;2.30;;
21657;SDS011;10990;48.174;9.782;2022-07-18T07:38:56;2.65;;;2.42;;
21657;SDS011;10990;48.174;9.782;2022-07-18T07:41:25;3.50;;;2.60;;
21657;SDS011;10990;48.174;9.782;2022-07-18T07:43:52;4.45;;;2.20;;
21657;SDS011;10990;48.174;9.782;2022-07-18T07:46:20;3.05;;;2.55;;
21657;SDS011;10990;48.174;9.782;2022-07-18T07:48:46;2.97;;;2.60;;
21657;SDS011;10990;48.174;9.782;2022-07-18T07:51:14;3.70;;;2.10;;
21657;SDS011;10990;48.174;9.782;2022-07-18T07:53:41;3.00;;;2.45;;
21657;SDS011;10990;48.174;9.782;2022-07-18T07:56:10;6.50;;;2.33;;
21657;SDS011;10990;48.174;9.782;2022-07-18T07:58:38;2.70;;;2.20;;
21657;SDS011;10990;48.174;9.782;2022-07-18T08:01:05;2.45;;;2.25;;
21657;SDS011;10990;48.174;9.782;2022-07-18T08:03:32;4.82;;;2.65;;
21657;SDS011;10990;48.174;9.782;2022-07-18T08:05:59;4.82;;;2.45;;
21657;SDS011;10990;48.174;9.782;2022-07-18T08:08:26;4.50;;;2.70;;
21657;SDS011;10990;48.174;9.782;2022-07-18T08:10:54;3.65;;;2.40;;
21657;SDS011;10990;48.174;9.782;2022-07-18T08:13:21;2.80;;;2.40;;
21657;SDS011;10990;48.174;9.782;2022-07-18T08:15:50;4.05;;;2.30;;
21657;SDS011;10990;48.174;9.782;2022-07-18T08:18:17;6.28;;;2.40;;
21657;SDS011;10990;48.174;9.782;2022-07-18T08:20:44;5.88;;;2.85;;
21657;SDS011;10990;48.174;9.782;2022-07-18T08:23:12;2.60;;;2.40;;
21657;SDS011;10990;48.174;9.782;2022-07-18T08:25:40;3.00;;;2.70;;
21657;SDS011;10990;48.174;9.782;2022-07-18T08:28:11;3.45;;;2.40;;
21657;SDS011;10990;48.174;9.782;2022-07-18T08:30:40;4.03;;;2.75;;
21657;SDS011;10990;48.174;9.782;2022-07-18T08:33:08;2.70;;;2.38;;
21657;SDS011;10990;48.174;9.782;2022-07-18T08:35:36;4.63;;;2.63;;
21657;SDS011;10990;48.174;9.782;2022-07-18T08:38:03;2.20;;;2.10;;
21657;SDS011;10990;48.174;9.782;2022-07-18T08:40:31;3.00;;;2.15;;
21657;SDS011;10990;48.174;9.782;2022-07-18T08:43:00;3.75;;;2.50;;
21657;SDS011;10990;48.174;9.782;2022-07-18T08:45:27;4.47;;;2.25;;
21657;SDS011;10990;48.174;9.782;2022-07-18T08:47:55;3.90;;;2.55;;
21657;SDS011;10990;48.174;9.782;2022-07-18T08:50:23;2.95;;;2.00;;
21657;SDS011;10990;48.174;9.782;2022-07-18T08:52:51;4.97;;;2.67;;
21657;SDS011;10990;48.174;9.782;2022-07-18T08:55:19;2.75;;;2.13;;
21657;SDS011;10990;48.174;9.782;2022-07-18T08:57:47;6.07;;;2.20;;
21657;SDS011;10990;48.174;9.782;2022-07-18T09:00:14;3.47;;;2.20;;
21657;SDS011;10990;48.174;9.782;2022-07-18T09:02:42;3.05;;;2.17;;
21657;SDS011;10990;48.174;9.782;2022-07-18T09:05:17;2.28;;;1.88;;
21657;SDS011;10990;48.174;9.782;2022-07-18T09:07:47;3.05;;;2.30;;
21657;SDS011;10990;48.174;9.782;2022-07-18T09:10:16;2.22;;;2.03;;
21657;SDS011;10990;48.174;9.782;2022-07-18T09:12:55;4.18;;;2.40;;
21657;SDS011;10990;48.174;9.782;2022-07-18T09:15:22;4.40;;;2.30;;
21657;SDS011;10990;48.174;9.782;2022-07-18T09:17:50;4.80;;;2.30;;
21657;SDS011;10990;48.174;9.782;2022-07-18T09:20:17;2.92;;;2.22;;
21657;SDS011;10990;48.174;9.782;2022-07-18T09:22:45;2.75;;;2.33;;
21657;SDS011;10990;48.174;9.782;2022-07-18T09:25:16;3.58;;;2.25;;
21657;SDS011;10990;48.174;9.782;2022-07-18T09:27:46;4.30;;;2.38;;
21657;SDS011;10990;48.174;9.782;2022-07-18T09:30:16;3.85;;;2.22;;
21657;SDS011;10990;48.174;9.782;2022-07-18T09:32:46;3.05;;;2.30;;
21657;SDS011;10990;48.174;9.782;2022-07-18T09:35:17;3.17;;;2.08;;
21657;SDS011;10990;48.174;9.782;2022-07-18T09:40:37;3.47;;;2.20;;
21657;SDS011;10990;48.174;9.782;2022-07-18T09:43:06;2.85;;;2.28;;
21657;SDS011;10990;48.174;9.782;2022-07-18T09:45:35;3.08;;;2.30;;
21657;SDS011;10990;48.174;9.782;2022-07-18T09:48:03;2.85;;;2.10;;
21657;SDS011;10990;48.174;9.782;2022-07-18T09:50:33;3.25;;;2.10;;
21657;SDS011;10990;48.174;9.782;2022-07-18T09:53:15;1.98;;;1.80;;
21657;SDS011;10990;48.174;9.782;2022-07-18T09:55:45;2.70;;;2.50;;
21657;SDS011;10990;48.174;9.782;2022-07-18T09:58:14;2.20;;;2.00;;
21657;SDS011;10990;48.174;9.782;2022-07-18T10:00:44;2.65;;;2.45;;
21657;SDS011;10990;48.174;9.782;2022-07-18T10:03:12;3.85;;;2.38;;
21657;SDS011;10990;48.174;9.782;2022-07-18T10:05:39;2.20;;;2.00;;
21657;SDS011;10990;48.174;9.782;2022-07-18T10:08:09;2.22;;;2.10;;
21657;SDS011;10990;48.174;9.782;2022-07-18T10:10:40;2.10;;;2.00;;
21657;SDS011;10990;48.174;9.782;2022-07-18T10:13:08;2.20;;;2.00;;
21657;SDS011;10990;48.174;9.782;2022-07-18T10:15:36;2.50;;;2.30;;
21657;SDS011;10990;48.174;9.782;2022-07-18T10:18:06;4.10;;;2.25;;
21657;SDS011;10990;48.174;9.782;2022-07-18T10:20:36;2.33;;;2.13;;
21657;SDS011;10990;48.174;9.782;2022-07-18T10:23:09;3.47;;;2.17;;
21657;SDS011;10990;48.174;9.782;2022-07-18T10:25:44;2.10;;;2.00;;
21657;SDS011;10990;48.174;9.782;2022-07-18T10:28:30;3.92;;;2.50;;
21657;SDS011;10990;48.174;9.782;2022-07-18T10:31:17;2.88;;;2.20;;
21657;SDS011;10990;48.174;9.782;2022-07-18T10:33:44;2.30;;;2.20;;
21657;SDS011;10990;48.174;9.782;2022-07-18T10:36:14;2.60;;;2.40;;
21657;SDS011;10990;48.174;9.782;2022-07-18T10:39:05;3.42;;;2.22;;
21657;SDS011;10990;48.174;9.782;2022-07-18T10:42:11;3.25;;;2.10;;
21657;SDS011;10990;48.174;9.782;2022-07-18T10:44:41;2.60;;;2.15;;
21657;SDS011;10990;48.174;9.782;2022-07-18T10:47:10;3.38;;;2.00;;
21657;SDS011;10990;48.174;9.782;2022-07-18T10:55:30;2.95;;;1.92;;
21657;SDS011;10990;48.174;9.782;2022-07-18T10:58:18;2.97;;;1.95;;
21657;SDS011;10990;48.174;9.782;2022-07-18T11:00:49;3.28;;;1.98;;
21657;SDS011;10990;48.174;9.782;2022-07-18T11:03:26;6.57;;;2.17;;
21657;SDS011;10990;48.174;9.782;2022-07-18T11:05:56;3.28;;;2.10;;
21657;SDS011;10990;48.174;9.782;2022-07-18T11:08:23;1.90;;;1.80;;
21657;SDS011;10990;48.174;9.782;2022-07-18T11:11:11;2.70;;;1.80;;
21657;SDS011;10990;48.174;9.782;2022-07-18T11:13:44;2.00;;;1.80;;
21657;SDS011;10990;48.174;9.782;2022-07-18T11:16:17;3.35;;;2.00;;
21657;SDS011;10990;48.174;9.782;2022-07-18T11:21:44;4.10;;;2.30;;
21657;SDS011;10990;48.174;9.782;2022-07-18T11:24:12;2.33;;;2.00;;
21657;SDS011;10990;48.174;9.782;2022-07-18T11:26:43;3.20;;;1.92;;
21657;SDS011;10990;48.174;9.782;2022-07-18T11:29:14;2.65;;;1.80;;
21657;SDS011;10990;48.174;9.782;2022-07-18T11:31:44;2.95;;;1.80;;
21657;SDS011;10990;48.174;9.782;2022-07-18T11:34:13;3.25;;;1.73;;
21657;SDS011;10990;48.174;9.782;2022-07-18T11:36:41;2.05;;;1.60;;
21657;SDS011;10990;48.174;9.782;2022-07-18T11:39:10;1.83;;;1.73;;
21657;SDS011;10990;48.174;9.782;2022-07-18T11:41:37;3.80;;;1.80;;
21657;SDS011;10990;48.174;9.782;2022-07-18T11:44:05;1.80;;;1.70;;
21657;SDS011;10990;48.174;9.782;2022-07-18T11:46:45;2.47;;;1.50;;
21657;SDS011;10990;48.174;9.782;2022-07-18T11:49:13;1.60;;;1.50;;
21657;SDS011;10990;48.174;9.782;2022-07-18T11:51:42;1.50;;;1.40;;
21657;SDS011;10990;48.174;9.782;2022-07-18T11:54:11;1.70;;;1.60;;
21657;SDS011;10990;48.174;9.782;2022-07-18T11:56:48;2.22;;;1.48;;
21657;SDS011;10990;48.174;9.782;2022-07-18T11:59:19;1.80;;;1.70;;
21657;SDS011;10990;48.174;9.782;2022-07-18T12:01:47;1.50;;;1.40;;
21657;SDS011;10990;48.174;9.782;2022-07-18T12:04:18;1.50;;;1.40;;
21657;SDS011;10990;48.174;9.782;2022-07-18T12:09:39;2.00;;;1.60;;
21657;SDS011;10990;48.174;9.782;2022-07-18T12:12:07;1.90;;;1.58;;
21657;SDS011;10990;48.174;9.782;2022-07-18T12:14:36;2.45;;;1.90;;
21657;SDS011;10990;48.174;9.782;2022-07-18T12:17:05;2.15;;;1.92;;
21657;SDS011;10990;48.174;9.782;2022-07-18T12:19:33;1.83;;;1.73;;
21657;SDS011;10990;48.174;9.782;2022-07-18T12:22:06;2.20;;;2.00;;
21657;SDS011;10990;48.174;9.782;2022-07-18T12:24:35;3.65;;;1.90;;
21657;SDS011;10990;48.174;9.782;2022-07-18T12:27:11;3.20;;;2.20;;
21657;SDS011;10990;48.174;9.782;2022-07-18T12:32:46;1.80;;;1.70;;
21657;SDS011;10990;48.174;9.782;2022-07-18T12:35:17;2.65;;;1.80;;
21657;SDS011;10990;48.174;9.782;2022-07-18T12:37:52;1.80;;;1.70;;
21657;SDS011;10990;48.174;9.782;2022-07-18T12:40:20;1.92;;;1.70;;
21657;SDS011;10990;48.174;9.782;2022-07-18T12:42:49;2.50;;;1.80;;
21657;SDS011;10990;48.174;9.782;2022-07-18T12:45:17;3.60;;;1.98;;
21657;SDS011;10990;48.174;9.782;2022-07-18T12:47:44;3.80;;;2.08;;
21657;SDS011;10990;48.174;9.782;2022-07-18T12:50:11;2.80;;;1.70;;
21657;SDS011;10990;48.174;9.782;2022-07-18T12:52:38;1.90;;;1.80;;
21657;SDS011;10990;48.174;9.782;2022-07-18T12:55:05;2.15;;;1.77;;
21657;SDS011;10990;48.174;9.782;2022-07-18T12:57:33;2.17;;;1.70;;
21657;SDS011;10990;48.174;9.782;2022-07-18T13:00:01;1.90;;;1.80;;
21657;SDS011;10990;48.174;9.782;2022-07-18T13:02:31;2.28;;;1.80;;
21657;SDS011;10990;48.174;9.782;2022-07-18T13:04:58;2.08;;;1.88;;
21657;SDS011;10990;48.174;9.782;2022-07-18T13:07:29;3.38;;;1.80;;
21657;SDS011;10990;48.174;9.782;2022-07-18T13:09:56;2.53;;;1.75;;
21657;SDS011;10990;48.174;9.782;2022-07-18T13:12:23;1.60;;;1.50;;
21657;SDS011;10990;48.174;9.782;2022-07-18T13:14:50;1.65;;;1.55;;
21657;SDS011;10990;48.174;9.782;2022-07-18T13:17:17;1.55;;;1.45;;
21657;SDS011;10990;48.174;9.782;2022-07-18T13:19:46;1.85;;;1.70;;
21657;SDS011;10990;48.174;9.782;2022-07-18T13:22:15;1.70;;;1.60;;
21657;SDS011;10990;48.174;9.782;2022-07-18T13:24:42;3.30;;;1.70;;
21657;SDS011;10990;48.174;9.782;2022-07-18T13:27:09;2.05;;;1.67;;
21657;SDS011;10990;48.174;9.782;2022-07-18T13:29:36;1.80;;;1.70;;
21657;SDS011;10990;48.174;9.782;2022-07-18T13:32:04;2.20;;;1.55;;
21657;SDS011;10990;48.174;9.782;2022-07-18T13:34:31;1.92;;;1.70;;
21657;SDS011;10990;48.174;9.782;2022-07-18T13:37:00;1.60;;;1.50;;
21657;SDS011;10990;48.174;9.782;2022-07-18T13:39:27;3.00;;;1.60;;
21657;SDS011;10990;48.174;9.782;2022-07-18T13:41:54;3.05;;;1.70;;
21657;SDS011;10990;48.174;9.782;2022-07-18T13:44:22;2.13;;;1.63;;
21657;SDS011;10990;48.174;9.782;2022-07-18T13:46:49;2.42;;;1.73;;
21657;SDS011;10990;48.174;9.782;2022-07-18T13:49:16;1.90;;;1.80;;
21657;SDS011;10990;48.174;9.782;2022-07-18T13:51:44;2.10;;;1.90;;
21657;SDS011;10990;48.174;9.782;2022-07-18T13:54:13;1.90;;;1.77;;
21657;SDS011;10990;48.174;9.782;2022-07-18T13:56:42;2.13;;;1.88;;
21657;SDS011;10990;48.174;9.782;2022-07-18T13:59:08;2.45;;;1.90;;
21657;SDS011;10990;48.174;9.782;2022-07-18T14:01:36;2.03;;;1.77;;
21657;SDS011;10990;48.174;9.782;2022-07-18T14:04:02;1.70;;;1.60;;
21657;SDS011;10990;48.174;9.782;2022-07-18T14:06:30;2.28;;;1.80;;
21657;SDS011;10990;48.174;9.782;2022-07-18T14:09:00;1.70;;;1.60;;
21657;SDS011;10990;48.174;9.782;2022-07-18T14:11:29;1.75;;;1.65;;
21657;SDS011;10990;48.174;9.782;2022-07-18T14:13:57;3.28;;;1.60;;
21657;SDS011;10990;48.174;9.782;2022-07-18T14:16:24;2.85;;;1.98;;
21657;SDS011;10990;48.174;9.782;2022-07-18T14:18:51;2.13;;;1.70;;
21657;SDS011;10990;48.174;9.782;2022-07-18T14:21:18;1.80;;;1.70;;
21657;SDS011;10990;48.174;9.782;2022-07-18T14:23:45;1.73;;;1.63;;
21657;SDS011;10990;48.174;9.782;2022-07-18T14:26:12;1.90;;;1.80;;
21657;SDS011;10990;48.174;9.782;2022-07-18T14:28:41;2.85;;;1.90;;
21657;SDS011;10990;48.174;9.782;2022-07-18T14:31:09;2.10;;;1.80;;
21657;SDS011;10990;48.174;9.782;2022-07-18T14:33:36;2.20;;;1.90;;
21657;SDS011;10990;48.174;9.782;2022-07-18T14:36:04;2.30;;;2.00;;
21657;SDS011;10990;48.174;9.782;2022-07-18T14:38:31;3.22;;;2.10;;
21657;SDS011;10990;48.174;9.782;2022-07-18T14:40:58;2.70;;;1.67;;
21657;SDS011;10990;48.174;9.782;2022-07-18T14:43:25;2.50;;;1.88;;
21657;SDS011;10990;48.174;9.782;2022-07-18T14:45:54;2.10;;;1.70;;
21657;SDS011;10990;48.174;9.782;2022-07-18T14:48:21;1.77;;;1.67;;
21657;SDS011;10990;48.174;9.782;2022-07-18T14:50:50;1.80;;;1.70;;
21657;SDS011;10990;48.174;9.782;2022-07-18T14:53:17;5.70;;;1.88;;
21657;SDS011;10990;48.174;9.782;2022-07-18T14:55:44;2.53;;;2.08;;
21657;SDS011;10990;48.174;9.782;2022-07-18T14:58:12;4.43;;;1.90;;
21657;SDS011;10990;48.174;9.782;2022-07-18T15:00:39;2.08;;;1.75;;
21657;SDS011;10990;48.174;9.782;2022-07-18T15:03:08;1.80;;;1.70;;
21657;SDS011;10990;48.174;9.782;2022-07-18T15:05:36;1.75;;;1.65;;
21657;SDS011;10990;48.174;9.782;2022-07-18T15:08:03;4.57;;;1.95;;
21657;SDS011;10990;48.174;9.782;2022-07-18T15:10:32;3.58;;;1.95;;
21657;SDS011;10990;48.174;9.782;2022-07-18T15:12:59;2.17;;;1.83;;